Terminal Aerodrome Forecast
Issued by NWS

Home | Current Version | Previous Version | Text Only | Print | Product List | Glossary On
Versions: 1 2 3 4 5 6 7 8 9 10 11 12 13 14 15 16 17
000
FTUS45 KRIW 281700
TAFLND
TAF
KLND 281731Z 2818/0118 VRB04KT 2SM -SN BR SCT010 OVC025
     FM282100 05005KT 5SM -SN SCT015 OVC025
     FM010400 VRB04KT 4SM BR SCT012 OVC024=

USA.gov is the U.S. government's official web portal to all federal, state and local government web resources and services.